createdAt,value
2022-07-29T00:02:06.188Z,9.23
2022-07-29T00:05:13.879Z,7.60
2022-07-29T00:08:18.005Z,10.65
2022-07-29T00:11:27.935Z,8.10
2022-07-29T00:14:32.027Z,8.43
2022-07-29T00:17:36.122Z,9.33
2022-07-29T00:20:40.221Z,8.25
2022-07-29T00:23:44.281Z,11.48
2022-07-29T00:26:48.437Z,10.40
2022-07-29T00:29:53.692Z,12.33
2022-07-29T00:32:57.729Z,10.77
2022-07-29T00:36:01.655Z,11.65
2022-07-29T00:39:05.919Z,12.13
2022-07-29T00:42:11.787Z,10.23
2022-07-29T00:45:16.933Z,10.73
2022-07-29T00:48:21.190Z,10.15
2022-07-29T00:51:28.127Z,14.80
2022-07-29T00:54:33.081Z,11.03
2022-07-29T00:57:37.961Z,8.67
2022-07-29T01:00:42.510Z,8.20
2022-07-29T01:03:49.327Z,14.40
2022-07-29T01:06:54.472Z,10.75
2022-07-29T01:10:03.367Z,10.27
2022-07-29T01:13:08.634Z,9.15
2022-07-29T01:16:29.483Z,12.87
2022-07-29T01:19:49.822Z,11.57
2022-07-29T01:23:39.886Z,9.15
2022-07-29T01:26:52.882Z,11.25
2022-07-29T01:30:01.260Z,7.73
2022-07-29T01:33:34.719Z,14.13
2022-07-29T01:36:48.145Z,8.43
2022-07-29T01:39:58.478Z,13.20
2022-07-29T01:43:13.405Z,12.65
2022-07-29T01:46:26.539Z,10.53
2022-07-29T01:49:35.846Z,6.95
2022-07-29T01:52:44.646Z,12.35
2022-07-29T01:55:51.432Z,16.47
2022-07-29T01:58:56.875Z,10.20
2022-07-29T02:02:03.779Z,8.97
2022-07-29T02:05:12.143Z,10.40
2022-07-29T02:08:20.149Z,9.93
2022-07-29T02:11:24.611Z,12.10
2022-07-29T02:14:31.521Z,10.25
2022-07-29T02:17:41.005Z,11.05
2022-07-29T02:20:48.175Z,13.58
2022-07-29T02:23:55.706Z,8.80
2022-07-29T02:27:02.621Z,8.13
2022-07-29T02:30:10.597Z,9.87
2022-07-29T02:33:19.319Z,10.45
2022-07-29T02:36:28.010Z,12.53
2022-07-29T02:39:35.456Z,10.58
2022-07-29T02:42:42.437Z,10.80
2022-07-29T02:45:51.869Z,10.23
2022-07-29T02:49:02.767Z,9.80
2022-07-29T02:52:10.463Z,8.77
2022-07-29T02:55:23.239Z,9.70
2022-07-29T02:58:30.261Z,14.30
2022-07-29T03:01:36.022Z,10.30
2022-07-29T03:04:43.985Z,9.50
2022-07-29T03:07:52.209Z,7.90
2022-07-29T03:10:57.847Z,10.47
2022-07-29T03:14:02.369Z,8.40
2022-07-29T03:17:12.380Z,7.35
2022-07-29T03:20:17.134Z,7.00
2022-07-29T03:23:23.243Z,10.25
2022-07-29T03:26:27.706Z,10.90
2022-07-29T03:29:33.461Z,8.40
2022-07-29T03:32:53.150Z,9.40
2022-07-29T03:35:59.453Z,8.50
2022-07-29T03:39:05.101Z,11.70
2022-07-29T03:42:11.817Z,12.35
2022-07-29T03:45:18.452Z,8.10
2022-07-29T03:48:25.349Z,9.53
2022-07-29T03:51:31.583Z,10.32
2022-07-29T03:54:40.837Z,8.85
2022-07-29T03:57:47.832Z,7.55
2022-07-29T04:00:53.541Z,8.35
2022-07-29T04:03:57.731Z,8.88
2022-07-29T04:07:02.164Z,7.22
2022-07-29T04:10:08.154Z,7.30
2022-07-29T04:13:12.177Z,6.92
2022-07-29T04:16:16.215Z,8.75
2022-07-29T04:19:22.133Z,6.55
2022-07-29T04:22:26.256Z,8.13
2022-07-29T04:25:31.404Z,6.47
2022-07-29T04:28:35.346Z,8.75
2022-07-29T04:31:39.238Z,9.23
2022-07-29T04:34:43.233Z,7.50
2022-07-29T04:37:50.142Z,7.45
2022-07-29T04:40:54.131Z,5.13
2022-07-29T04:44:01.309Z,6.75
2022-07-29T04:47:08.590Z,6.92
2022-07-29T04:50:12.839Z,5.78
2022-07-29T04:53:19.537Z,6.10
2022-07-29T04:56:24.142Z,8.50
2022-07-29T04:59:28.058Z,5.28
2022-07-29T05:02:34.273Z,6.92
2022-07-29T05:05:38.522Z,4.08
2022-07-29T05:08:42.665Z,7.20
2022-07-29T05:11:46.687Z,6.60
2022-07-29T05:14:50.853Z,8.03
2022-07-29T05:17:54.826Z,6.72
2022-07-29T05:21:01.167Z,7.85
2022-07-29T05:24:06.398Z,4.15
2022-07-29T05:27:10.654Z,9.43
2022-07-29T05:30:14.977Z,10.00
2022-07-29T05:33:36.269Z,7.42
2022-07-29T05:36:40.791Z,7.33
2022-07-29T05:39:48.181Z,4.58
2022-07-29T05:42:53.440Z,6.80
2022-07-29T05:45:58.113Z,6.55
2022-07-29T05:49:03.250Z,7.72
2022-07-29T05:52:07.908Z,7.67
2022-07-29T05:55:12.335Z,6.10
2022-07-29T05:58:16.779Z,4.83
2022-07-29T06:01:21.032Z,7.80
2022-07-29T06:04:25.407Z,5.50
2022-07-29T06:07:29.836Z,6.25
2022-07-29T06:10:42.507Z,6.33
2022-07-29T06:13:47.103Z,5.57
2022-07-29T06:16:51.563Z,6.67
2022-07-29T06:19:55.844Z,6.33
2022-07-29T06:23:01.845Z,6.85
2022-07-29T06:26:07.851Z,7.80
2022-07-29T06:29:12.527Z,6.90
2022-07-29T06:32:16.841Z,3.85
2022-07-29T06:35:38.384Z,6.83
2022-07-29T06:38:50.437Z,7.30
2022-07-29T06:41:55.989Z,3.83
2022-07-29T06:45:06.195Z,6.58
2022-07-29T06:48:13.572Z,6.30
2022-07-29T06:51:22.703Z,7.97
2022-07-29T06:54:28.020Z,5.95
2022-07-29T06:57:31.909Z,6.10
2022-07-29T07:00:35.985Z,4.17
2022-07-29T07:03:43.337Z,5.83
2022-07-29T07:06:49.868Z,7.17
2022-07-29T07:09:57.391Z,5.25
2022-07-29T07:13:05.079Z,5.03
2022-07-29T07:19:14.187Z,5.20
2022-07-29T07:22:18.335Z,4.85
2022-07-29T07:25:22.550Z,6.58
2022-07-29T07:28:26.612Z,5.22
2022-07-29T07:31:33.727Z,5.10
2022-07-29T07:34:38.319Z,5.97
2022-07-29T07:37:44.307Z,4.13
2022-07-29T07:40:48.161Z,5.10
2022-07-29T07:43:52.279Z,3.17
2022-07-29T07:46:56.537Z,3.05
2022-07-29T07:50:18.483Z,4.70
2022-07-29T07:53:23.393Z,4.70
2022-07-29T07:56:33.256Z,7.55
2022-07-29T07:59:39.481Z,6.95
2022-07-29T08:02:43.773Z,8.03
2022-07-29T08:05:48.767Z,4.97
2022-07-29T08:08:56.220Z,5.03
2022-07-29T08:12:12.559Z,4.10
2022-07-29T08:15:18.810Z,5.37
2022-07-29T08:18:23.186Z,4.58
2022-07-29T08:21:27.572Z,4.83
2022-07-29T08:24:44.051Z,4.07
2022-07-29T08:27:49.163Z,6.53
2022-07-29T08:30:53.602Z,6.55
2022-07-29T08:34:00.213Z,4.33
2022-07-29T08:37:04.335Z,5.40
2022-07-29T08:40:10.043Z,8.10
2022-07-29T08:43:14.700Z,4.37
2022-07-29T08:46:20.496Z,5.00
2022-07-29T08:49:34.625Z,6.15
2022-07-29T08:52:41.005Z,4.77
2022-07-29T08:55:46.923Z,5.15
2022-07-29T08:58:52.253Z,5.90
2022-07-29T09:02:00.800Z,2.80
2022-07-29T09:05:07.534Z,4.72
2022-07-29T09:08:13.597Z,5.60
2022-07-29T09:11:22.504Z,5.30
2022-07-29T09:14:26.740Z,4.20
2022-07-29T09:17:48.119Z,4.67
2022-07-29T09:21:12.283Z,6.17
2022-07-29T09:24:17.936Z,7.53
2022-07-29T09:27:29.385Z,4.33
2022-07-29T09:33:40.914Z,3.67
2022-07-29T09:36:47.928Z,4.72
2022-07-29T09:39:53.026Z,4.45
2022-07-29T09:42:57.739Z,5.50
2022-07-29T09:46:12.720Z,4.00
2022-07-29T09:49:16.986Z,5.85
2022-07-29T09:52:22.119Z,3.22
2022-07-29T09:55:26.119Z,5.05
2022-07-29T09:58:30.174Z,2.52
2022-07-29T10:01:34.507Z,6.12
2022-07-29T10:04:43.087Z,6.80
2022-07-29T10:07:53.477Z,4.62
2022-07-29T10:11:11.362Z,6.05
2022-07-29T10:14:16.725Z,2.90
2022-07-29T10:17:23.293Z,5.53
2022-07-29T10:20:32.070Z,7.53
2022-07-29T10:23:47.113Z,2.87
2022-07-29T10:26:53.066Z,3.80
2022-07-29T10:30:00.092Z,3.30
2022-07-29T10:33:29.037Z,6.53
2022-07-29T10:36:48.554Z,4.95
2022-07-29T10:40:03.035Z,5.33
2022-07-29T10:43:18.635Z,5.35
2022-07-29T10:46:25.519Z,3.73
2022-07-29T10:49:32.487Z,4.58
2022-07-29T10:52:57.783Z,7.43
2022-07-29T10:56:02.071Z,7.58
2022-07-29T10:59:32.323Z,4.67
2022-07-29T11:02:51.569Z,7.40
2022-07-29T11:06:00.525Z,8.73
2022-07-29T11:09:30.167Z,2.83
2022-07-29T11:12:52.062Z,8.33
2022-07-29T11:15:57.765Z,3.85
2022-07-29T11:19:26.591Z,5.72
2022-07-29T11:22:37.698Z,6.85
2022-07-29T11:26:18.486Z,4.25
2022-07-29T11:29:24.160Z,3.37
2022-07-29T11:32:38.517Z,5.17
2022-07-29T11:35:43.299Z,6.37
2022-07-29T11:39:36.968Z,5.67
2022-07-29T11:42:46.540Z,6.00
2022-07-29T11:45:51.186Z,2.97
2022-07-29T11:48:57.557Z,4.97
2022-07-29T11:52:03.489Z,4.37
2022-07-29T11:55:09.940Z,7.90
2022-07-29T11:58:14.476Z,5.53
2022-07-29T12:01:24.747Z,4.95
2022-07-29T12:04:28.963Z,6.30
2022-07-29T12:07:35.480Z,3.92
2022-07-29T12:10:40.889Z,6.70
2022-07-29T12:13:47.661Z,7.03
2022-07-29T12:16:53.725Z,5.45
2022-07-29T12:20:03.991Z,8.38
2022-07-29T12:23:12.079Z,6.42
2022-07-29T12:26:25.612Z,3.98
2022-07-29T12:29:35.476Z,5.53
2022-07-29T12:32:46.804Z,6.50
2022-07-29T12:36:17.594Z,6.50
2022-07-29T12:39:22.363Z,5.10
2022-07-29T12:42:27.662Z,5.00
2022-07-29T12:45:33.933Z,6.53
2022-07-29T12:48:39.982Z,3.72
2022-07-29T12:51:44.446Z,7.55
2022-07-29T12:54:50.395Z,4.55
2022-07-29T12:57:56.343Z,7.30
2022-07-29T13:01:06.791Z,4.42
2022-07-29T13:04:37.099Z,2.35
2022-07-29T13:07:56.993Z,3.40
2022-07-29T13:11:01.797Z,8.83
2022-07-29T13:14:07.145Z,5.10
2022-07-29T13:17:14.733Z,4.03
2022-07-29T13:20:30.087Z,6.12
2022-07-29T13:23:45.051Z,3.67
2022-07-29T13:26:49.231Z,4.17
2022-07-29T13:30:00.543Z,4.15
2022-07-29T13:33:04.788Z,4.83
2022-07-29T13:36:10.368Z,5.42
2022-07-29T13:39:15.870Z,6.17
2022-07-29T13:42:22.252Z,5.65
2022-07-29T13:45:29.021Z,5.15
2022-07-29T13:48:33.503Z,5.53
2022-07-29T13:51:37.979Z,5.12
2022-07-29T13:54:45.253Z,4.53
2022-07-29T13:57:49.354Z,4.37
2022-07-29T14:00:53.658Z,3.00
2022-07-29T14:03:58.120Z,7.10
2022-07-29T14:07:04.005Z,5.15
2022-07-29T14:10:09.993Z,3.62
2022-07-29T14:14:07.472Z,4.53
2022-07-29T14:16:52.278Z,4.30
2022-07-29T14:19:59.330Z,4.13
2022-07-29T14:23:05.262Z,5.45
2022-07-29T14:26:13.193Z,5.72
2022-07-29T14:29:23.877Z,5.47
2022-07-29T14:32:41.519Z,5.83
2022-07-29T14:35:46.760Z,5.83
2022-07-29T14:38:53.360Z,5.78
2022-07-29T14:41:57.524Z,5.05
2022-07-29T14:45:03.876Z,7.67
2022-07-29T14:48:08.003Z,4.30
2022-07-29T14:51:12.198Z,5.47
2022-07-29T14:54:19.605Z,5.08
2022-07-29T14:57:24.524Z,5.57
2022-07-29T15:00:32.690Z,7.75
2022-07-29T15:03:36.918Z,4.67
2022-07-29T15:06:44.389Z,5.45
2022-07-29T15:09:49.970Z,3.25
2022-07-29T15:12:54.653Z,4.08
2022-07-29T15:16:00.928Z,6.08
2022-07-29T15:19:11.837Z,3.83
2022-07-29T15:22:15.867Z,2.62
2022-07-29T15:25:20.141Z,4.85
2022-07-29T15:28:25.690Z,5.10
2022-07-29T15:31:29.853Z,5.08
2022-07-29T15:34:34.050Z,9.28
2022-07-29T15:37:49.418Z,5.55
2022-07-29T15:40:53.681Z,4.70
2022-07-29T15:44:01.054Z,4.17
2022-07-29T15:47:06.539Z,4.78
2022-07-29T15:50:15.345Z,6.90
2022-07-29T15:53:19.886Z,4.35
2022-07-29T15:56:24.212Z,5.28
2022-07-29T15:59:33.852Z,6.10
2022-07-29T16:02:38.005Z,2.75
2022-07-29T16:05:42.358Z,5.85
2022-07-29T16:08:46.521Z,8.20
2022-07-29T16:11:54.642Z,4.05
2022-07-29T16:14:58.653Z,4.40
2022-07-29T16:18:03.770Z,5.55
2022-07-29T16:21:09.082Z,4.72
2022-07-29T16:24:13.261Z,3.40
2022-07-29T16:27:17.240Z,6.37
2022-07-29T16:30:22.581Z,3.40
2022-07-29T16:33:27.781Z,6.47
2022-07-29T16:36:31.894Z,4.50
2022-07-29T16:39:36.200Z,4.77
2022-07-29T16:42:47.888Z,3.70
2022-07-29T16:45:52.250Z,6.53
2022-07-29T16:48:56.508Z,6.92
2022-07-29T16:52:00.715Z,4.63
2022-07-29T16:55:07.337Z,4.70
2022-07-29T16:58:11.925Z,6.28
2022-07-29T17:01:17.388Z,5.65
2022-07-29T17:04:23.089Z,6.12
2022-07-29T17:07:27.792Z,5.67
2022-07-29T17:10:32.248Z,6.08
2022-07-29T17:13:36.845Z,3.95
2022-07-29T17:16:40.846Z,3.90
2022-07-29T17:19:45.193Z,6.97
2022-07-29T17:22:49.215Z,6.78
2022-07-29T17:25:53.612Z,5.17
2022-07-29T17:28:58.056Z,2.70
2022-07-29T17:32:02.194Z,4.25
2022-07-29T17:35:23.438Z,5.92
2022-07-29T17:38:27.468Z,5.55
2022-07-29T17:41:32.713Z,3.47
2022-07-29T17:44:40.282Z,4.00
2022-07-29T17:47:44.932Z,5.53
2022-07-29T17:50:53.318Z,4.97
2022-07-29T17:53:57.782Z,4.65
2022-07-29T17:57:02.149Z,4.62
2022-07-29T18:00:09.621Z,4.65
2022-07-29T18:03:16.504Z,4.30
2022-07-29T18:06:21.109Z,4.03
2022-07-29T18:09:25.086Z,4.42
2022-07-29T18:12:29.530Z,7.62
2022-07-29T18:15:34.053Z,5.28
2022-07-29T18:18:39.252Z,7.40
2022-07-29T18:21:52.045Z,7.47
2022-07-29T18:24:59.755Z,4.12
2022-07-29T18:28:05.346Z,5.12
2022-07-29T18:31:09.785Z,7.75
2022-07-29T18:34:13.943Z,6.70
2022-07-29T18:37:18.088Z,6.93
2022-07-29T18:40:42.307Z,9.28
2022-07-29T18:43:46.738Z,8.73
2022-07-29T18:46:51.694Z,4.75
2022-07-29T18:49:56.237Z,7.58
2022-07-29T18:53:02.635Z,5.60
2022-07-29T18:56:07.051Z,5.03
2022-07-29T18:59:11.612Z,6.47
2022-07-29T19:02:16.410Z,6.78
2022-07-29T19:05:20.776Z,8.67
2022-07-29T19:08:25.375Z,9.13
2022-07-29T19:11:30.982Z,9.83
2022-07-29T19:14:35.431Z,7.05
2022-07-29T19:17:39.585Z,6.87
2022-07-29T19:20:43.751Z,4.83
2022-07-29T19:24:05.786Z,3.72
2022-07-29T19:27:12.306Z,6.42
2022-07-29T19:30:16.400Z,5.25
2022-07-29T19:33:20.911Z,6.20
2022-07-29T19:36:26.898Z,7.80
2022-07-29T19:39:34.717Z,4.92
2022-07-29T19:42:39.743Z,7.03
2022-07-29T19:45:45.627Z,6.37
2022-07-29T19:48:50.504Z,6.28
2022-07-29T19:51:54.713Z,9.90
2022-07-29T19:54:58.902Z,7.17
2022-07-29T19:58:03.941Z,7.37
2022-07-29T20:01:11.031Z,8.68
2022-07-29T20:04:15.171Z,9.58
2022-07-29T20:07:19.460Z,7.62
2022-07-29T20:10:23.839Z,6.62
2022-07-29T20:13:28.573Z,8.05
2022-07-29T20:16:32.929Z,6.10
2022-07-29T20:19:37.158Z,8.15
2022-07-29T20:22:41.667Z,8.63
2022-07-29T20:25:45.989Z,9.43
2022-07-29T20:28:50.443Z,8.33
2022-07-29T20:31:56.738Z,6.45
2022-07-29T20:35:01.076Z,6.33
2022-07-29T20:38:06.450Z,10.90
2022-07-29T20:41:10.730Z,7.58
2022-07-29T20:44:14.885Z,7.08
2022-07-29T20:47:20.495Z,6.53
2022-07-29T20:50:28.133Z,4.83
2022-07-29T20:53:33.388Z,6.95
2022-07-29T20:56:38.292Z,6.20
2022-07-29T20:59:45.787Z,8.13
2022-07-29T21:02:51.141Z,5.83
2022-07-29T21:05:55.153Z,5.80
2022-07-29T21:09:00.600Z,7.67
2022-07-29T21:12:06.338Z,8.48
2022-07-29T21:15:13.002Z,9.38
2022-07-29T21:18:27.414Z,7.60
2022-07-29T21:21:34.414Z,7.08
2022-07-29T21:24:41.286Z,10.20
2022-07-29T21:28:03.490Z,7.10
2022-07-29T21:31:09.837Z,6.87
2022-07-29T21:34:14.980Z,9.68
2022-07-29T21:37:19.060Z,7.17
2022-07-29T21:40:23.612Z,7.90
2022-07-29T21:43:28.372Z,7.35
2022-07-29T21:46:32.371Z,9.88
2022-07-29T21:49:36.588Z,7.78
2022-07-29T21:52:43.532Z,8.88
2022-07-29T21:55:49.949Z,7.40
2022-07-29T21:58:54.484Z,7.97
2022-07-29T22:02:00.370Z,8.65
2022-07-29T22:05:04.821Z,4.50
2022-07-29T22:08:08.969Z,4.97
2022-07-29T22:11:13.425Z,5.60
2022-07-29T22:14:18.143Z,11.90
2022-07-29T22:17:22.947Z,7.17
2022-07-29T22:20:30.094Z,5.50
2022-07-29T22:23:34.113Z,4.27
2022-07-29T22:26:38.749Z,8.53
2022-07-29T22:29:42.852Z,4.85
2022-07-29T22:32:49.030Z,6.92
2022-07-29T22:35:53.184Z,7.65
2022-07-29T22:38:57.278Z,3.62
2022-07-29T22:42:01.424Z,5.10
2022-07-29T22:45:08.991Z,4.62
2022-07-29T22:48:12.998Z,4.12
2022-07-29T22:51:19.300Z,5.85
2022-07-29T22:54:23.594Z,6.33
2022-07-29T22:57:27.724Z,4.97
2022-07-29T23:00:32.088Z,6.87
2022-07-29T23:03:37.034Z,5.35
2022-07-29T23:06:41.280Z,2.33
2022-07-29T23:09:45.391Z,6.40
2022-07-29T23:12:49.583Z,3.10
2022-07-29T23:15:53.825Z,4.72
2022-07-29T23:18:58.137Z,6.10
2022-07-29T23:22:03.112Z,5.40
2022-07-29T23:25:09.016Z,5.12
2022-07-29T23:28:13.881Z,4.17
2022-07-29T23:31:18.331Z,2.80
2022-07-29T23:34:22.644Z,3.80
2022-07-29T23:37:27.257Z,3.00
2022-07-29T23:40:31.813Z,3.37
2022-07-29T23:43:36.002Z,3.12
2022-07-29T23:46:39.985Z,3.83
2022-07-29T23:49:44.089Z,7.05
2022-07-29T23:52:50.042Z,4.87
2022-07-29T23:55:54.150Z,5.42
2022-07-29T23:59:01.193Z,4.22
